sensor_id;sensor_type;location;lat;lon;timestamp;pressure;altitude;pressure_sealevel;temperature
80496;BMP180;69819;48.798;11.770;2023-08-24T00:01:16;97808.00;;;22.00
80496;BMP180;69819;48.798;11.770;2023-08-24T00:03:44;97798.00;;;21.90
80496;BMP180;69819;48.798;11.770;2023-08-24T00:06:12;97788.00;;;21.90
80496;BMP180;69819;48.798;11.770;2023-08-24T00:08:38;97792.00;;;21.90
80496;BMP180;69819;48.798;11.770;2023-08-24T00:11:04;97788.00;;;21.80
80496;BMP180;69819;48.798;11.770;2023-08-24T00:13:31;97808.00;;;21.80
80496;BMP180;69819;48.798;11.770;2023-08-24T00:15:57;97810.00;;;21.70
80496;BMP180;69819;48.798;11.770;2023-08-24T00:18:24;97805.00;;;21.70
80496;BMP180;69819;48.798;11.770;2023-08-24T00:20:50;97782.00;;;21.70
80496;BMP180;69819;48.798;11.770;2023-08-24T00:23:17;97798.00;;;21.70
80496;BMP180;69819;48.798;11.770;2023-08-24T00:25:42;97792.00;;;21.60
80496;BMP180;69819;48.798;11.770;2023-08-24T00:28:09;97808.00;;;21.60
80496;BMP180;69819;48.798;11.770;2023-08-24T00:30:36;97807.00;;;21.60
80496;BMP180;69819;48.798;11.770;2023-08-24T00:33:02;97787.00;;;21.60
80496;BMP180;69819;48.798;11.770;2023-08-24T00:35:28;97815.00;;;21.60
80496;BMP180;69819;48.798;11.770;2023-08-24T00:37:55;97779.00;;;21.60
80496;BMP180;69819;48.798;11.770;2023-08-24T00:40:21;97816.00;;;21.50
80496;BMP180;69819;48.798;11.770;2023-08-24T00:42:47;97800.00;;;21.50
80496;BMP180;69819;48.798;11.770;2023-08-24T00:45:13;97801.00;;;21.50
80496;BMP180;69819;48.798;11.770;2023-08-24T00:47:42;97782.00;;;21.50
80496;BMP180;69819;48.798;11.770;2023-08-24T00:50:09;97794.00;;;21.50
80496;BMP180;69819;48.798;11.770;2023-08-24T00:52:41;97783.00;;;21.40
80496;BMP180;69819;48.798;11.770;2023-08-24T00:55:08;97802.00;;;21.40
80496;BMP180;69819;48.798;11.770;2023-08-24T00:57:37;97774.00;;;21.40
80496;BMP180;69819;48.798;11.770;2023-08-24T01:00:05;97775.00;;;21.40
80496;BMP180;69819;48.798;11.770;2023-08-24T01:02:32;97790.00;;;21.30
80496;BMP180;69819;48.798;11.770;2023-08-24T01:04:59;97784.00;;;21.40
80496;BMP180;69819;48.798;11.770;2023-08-24T01:07:25;97772.00;;;21.30
80496;BMP180;69819;48.798;11.770;2023-08-24T01:09:52;97767.00;;;21.30
80496;BMP180;69819;48.798;11.770;2023-08-24T01:15:40;97794.00;;;21.20
80496;BMP180;69819;48.798;11.770;2023-08-24T01:18:13;97787.00;;;21.20
80496;BMP180;69819;48.798;11.770;2023-08-24T01:20:43;97759.00;;;21.10
80496;BMP180;69819;48.798;11.770;2023-08-24T01:26:17;97790.00;;;21.00
80496;BMP180;69819;48.798;11.770;2023-08-24T01:28:45;97797.00;;;21.00
80496;BMP180;69819;48.798;11.770;2023-08-24T01:31:14;97792.00;;;20.90
80496;BMP180;69819;48.798;11.770;2023-08-24T01:33:44;97783.00;;;20.90
80496;BMP180;69819;48.798;11.770;2023-08-24T01:36:14;97743.00;;;20.90
80496;BMP180;69819;48.798;11.770;2023-08-24T01:38:41;97777.00;;;20.90
80496;BMP180;69819;48.798;11.770;2023-08-24T01:41:19;97744.00;;;20.80
80496;BMP180;69819;48.798;11.770;2023-08-24T01:43:52;97749.00;;;20.80
80496;BMP180;69819;48.798;11.770;2023-08-24T01:46:21;97779.00;;;20.80
80496;BMP180;69819;48.798;11.770;2023-08-24T01:48:48;97751.00;;;20.80
80496;BMP180;69819;48.798;11.770;2023-08-24T01:51:16;97776.00;;;20.80
80496;BMP180;69819;48.798;11.770;2023-08-24T01:53:43;97782.00;;;20.80
80496;BMP180;69819;48.798;11.770;2023-08-24T01:56:14;97785.00;;;20.70
80496;BMP180;69819;48.798;11.770;2023-08-24T01:58:40;97748.00;;;20.60
80496;BMP180;69819;48.798;11.770;2023-08-24T02:01:10;97733.00;;;20.70
80496;BMP180;69819;48.798;11.770;2023-08-24T02:03:38;97733.00;;;20.70
80496;BMP180;69819;48.798;11.770;2023-08-24T02:06:05;97761.00;;;20.70
80496;BMP180;69819;48.798;11.770;2023-08-24T02:08:32;97735.00;;;20.70
80496;BMP180;69819;48.798;11.770;2023-08-24T02:10:58;97759.00;;;20.70
80496;BMP180;69819;48.798;11.770;2023-08-24T02:13:24;97737.00;;;20.70
80496;BMP180;69819;48.798;11.770;2023-08-24T02:15:50;97765.00;;;20.60
80496;BMP180;69819;48.798;11.770;2023-08-24T02:18:16;97761.00;;;20.60
80496;BMP180;69819;48.798;11.770;2023-08-24T02:20:41;97749.00;;;20.60
80496;BMP180;69819;48.798;11.770;2023-08-24T02:23:07;97737.00;;;20.60
80496;BMP180;69819;48.798;11.770;2023-08-24T02:25:33;97726.00;;;20.60
80496;BMP180;69819;48.798;11.770;2023-08-24T02:27:59;97728.00;;;20.60
80496;BMP180;69819;48.798;11.770;2023-08-24T02:30:25;97726.00;;;20.60
80496;BMP180;69819;48.798;11.770;2023-08-24T02:32:51;97749.00;;;20.50
80496;BMP180;69819;48.798;11.770;2023-08-24T02:35:17;97733.00;;;20.50
80496;BMP180;69819;48.798;11.770;2023-08-24T02:37:44;97720.00;;;20.50
80496;BMP180;69819;48.798;11.770;2023-08-24T02:40:10;97738.00;;;20.50
80496;BMP180;69819;48.798;11.770;2023-08-24T02:42:37;97736.00;;;20.40
80496;BMP180;69819;48.798;11.770;2023-08-24T02:45:03;97729.00;;;20.50
80496;BMP180;69819;48.798;11.770;2023-08-24T02:47:29;97745.00;;;20.40
80496;BMP180;69819;48.798;11.770;2023-08-24T02:49:55;97728.00;;;20.40
80496;BMP180;69819;48.798;11.770;2023-08-24T02:52:21;97747.00;;;20.40
80496;BMP180;69819;48.798;11.770;2023-08-24T02:54:47;97730.00;;;20.40
80496;BMP180;69819;48.798;11.770;2023-08-24T02:57:13;97737.00;;;20.30
80496;BMP180;69819;48.798;11.770;2023-08-24T02:59:38;97733.00;;;20.30
80496;BMP180;69819;48.798;11.770;2023-08-24T03:02:04;97746.00;;;20.30
80496;BMP180;69819;48.798;11.770;2023-08-24T03:04:30;97737.00;;;20.30
80496;BMP180;69819;48.798;11.770;2023-08-24T03:06:56;97749.00;;;20.20
80496;BMP180;69819;48.798;11.770;2023-08-24T03:09:22;97687.00;;;20.20
80496;BMP180;69819;48.798;11.770;2023-08-24T03:11:48;97739.00;;;20.20
80496;BMP180;69819;48.798;11.770;2023-08-24T03:14:14;97741.00;;;20.10
80496;BMP180;69819;48.798;11.770;2023-08-24T03:16:39;97726.00;;;20.00
80496;BMP180;69819;48.798;11.770;2023-08-24T03:19:05;97717.00;;;20.10
80496;BMP180;69819;48.798;11.770;2023-08-24T03:21:31;97728.00;;;20.00
80496;BMP180;69819;48.798;11.770;2023-08-24T03:23:57;97754.00;;;20.00
80496;BMP180;69819;48.798;11.770;2023-08-24T03:26:23;97741.00;;;19.80
80496;BMP180;69819;48.798;11.770;2023-08-24T03:28:49;97653.00;;;19.90
80496;BMP180;69819;48.798;11.770;2023-08-24T03:31:16;97709.00;;;19.90
80496;BMP180;69819;48.798;11.770;2023-08-24T03:33:41;97687.00;;;19.90
80496;BMP180;69819;48.798;11.770;2023-08-24T03:36:07;97724.00;;;19.90
80496;BMP180;69819;48.798;11.770;2023-08-24T03:38:33;97740.00;;;19.90
80496;BMP180;69819;48.798;11.770;2023-08-24T03:41:03;97748.00;;;19.80
80496;BMP180;69819;48.798;11.770;2023-08-24T03:43:34;97750.00;;;19.80
80496;BMP180;69819;48.798;11.770;2023-08-24T03:46:01;97724.00;;;19.80
80496;BMP180;69819;48.798;11.770;2023-08-24T03:48:27;97720.00;;;19.80
80496;BMP180;69819;48.798;11.770;2023-08-24T03:50:57;97729.00;;;19.80
80496;BMP180;69819;48.798;11.770;2023-08-24T03:53:24;97730.00;;;19.80
80496;BMP180;69819;48.798;11.770;2023-08-24T03:55:54;97756.00;;;19.80
80496;BMP180;69819;48.798;11.770;2023-08-24T03:58:20;97655.00;;;19.80
80496;BMP180;69819;48.798;11.770;2023-08-24T04:00:46;97757.00;;;19.80
80496;BMP180;69819;48.798;11.770;2023-08-24T04:03:13;97692.00;;;19.80
80496;BMP180;69819;48.798;11.770;2023-08-24T04:05:39;97680.00;;;19.70
80496;BMP180;69819;48.798;11.770;2023-08-24T04:08:05;97731.00;;;19.80
80496;BMP180;69819;48.798;11.770;2023-08-24T04:10:31;97667.00;;;19.80
80496;BMP180;69819;48.798;11.770;2023-08-24T04:12:57;97749.00;;;19.80
80496;BMP180;69819;48.798;11.770;2023-08-24T04:15:23;97692.00;;;19.80
80496;BMP180;69819;48.798;11.770;2023-08-24T04:17:49;97673.00;;;19.80
80496;BMP180;69819;48.798;11.770;2023-08-24T04:20:16;97760.00;;;19.90
80496;BMP180;69819;48.798;11.770;2023-08-24T04:22:42;97699.00;;;19.60
80496;BMP180;69819;48.798;11.770;2023-08-24T04:25:08;97641.00;;;19.90
80496;BMP180;69819;48.798;11.770;2023-08-24T04:27:35;97644.00;;;19.90
80496;BMP180;69819;48.798;11.770;2023-08-24T04:30:00;97739.00;;;19.90
80496;BMP180;69819;48.798;11.770;2023-08-24T04:32:27;97765.00;;;19.90
80496;BMP180;69819;48.798;11.770;2023-08-24T04:34:53;97773.00;;;20.00
80496;BMP180;69819;48.798;11.770;2023-08-24T04:37:19;97708.00;;;20.00
80496;BMP180;69819;48.798;11.770;2023-08-24T04:39:45;97784.00;;;20.00
80496;BMP180;69819;48.798;11.770;2023-08-24T04:42:11;97700.00;;;20.10
80496;BMP180;69819;48.798;11.770;2023-08-24T04:44:38;97720.00;;;20.10
80496;BMP180;69819;48.798;11.770;2023-08-24T04:47:04;97724.00;;;20.20
80496;BMP180;69819;48.798;11.770;2023-08-24T04:49:30;97740.00;;;20.30
80496;BMP180;69819;48.798;11.770;2023-08-24T04:51:56;97756.00;;;20.30
80496;BMP180;69819;48.798;11.770;2023-08-24T04:54:22;97708.00;;;20.40
80496;BMP180;69819;48.798;11.770;2023-08-24T04:56:48;97732.00;;;20.50
80496;BMP180;69819;48.798;11.770;2023-08-24T04:59:14;97682.00;;;20.60
80496;BMP180;69819;48.798;11.770;2023-08-24T05:01:39;97735.00;;;20.70
80496;BMP180;69819;48.798;11.770;2023-08-24T05:04:05;97745.00;;;20.80
80496;BMP180;69819;48.798;11.770;2023-08-24T05:06:31;97722.00;;;20.90
80496;BMP180;69819;48.798;11.770;2023-08-24T05:08:57;97705.00;;;21.00
80496;BMP180;69819;48.798;11.770;2023-08-24T05:11:26;97732.00;;;21.20
80496;BMP180;69819;48.798;11.770;2023-08-24T05:13:52;97732.00;;;21.30
80496;BMP180;69819;48.798;11.770;2023-08-24T05:16:17;97713.00;;;21.40
80496;BMP180;69819;48.798;11.770;2023-08-24T05:18:43;97734.00;;;21.50
80496;BMP180;69819;48.798;11.770;2023-08-24T05:21:09;97744.00;;;21.60
80496;BMP180;69819;48.798;11.770;2023-08-24T05:23:35;97746.00;;;21.80
80496;BMP180;69819;48.798;11.770;2023-08-24T05:26:02;97745.00;;;21.90
80496;BMP180;69819;48.798;11.770;2023-08-24T05:28:30;97740.00;;;22.00
80496;BMP180;69819;48.798;11.770;2023-08-24T05:30:56;97738.00;;;22.30
80496;BMP180;69819;48.798;11.770;2023-08-24T05:33:24;97716.00;;;22.50
80496;BMP180;69819;48.798;11.770;2023-08-24T05:35:51;97736.00;;;22.80
80496;BMP180;69819;48.798;11.770;2023-08-24T05:38:18;97733.00;;;23.10
80496;BMP180;69819;48.798;11.770;2023-08-24T05:40:47;97743.00;;;23.40
80496;BMP180;69819;48.798;11.770;2023-08-24T05:43:13;97738.00;;;23.80
80496;BMP180;69819;48.798;11.770;2023-08-24T05:45:40;97716.00;;;24.10
80496;BMP180;69819;48.798;11.770;2023-08-24T05:48:06;97720.00;;;24.50
80496;BMP180;69819;48.798;11.770;2023-08-24T05:50:33;97732.00;;;24.80
80496;BMP180;69819;48.798;11.770;2023-08-24T05:52:59;97741.00;;;25.20
80496;BMP180;69819;48.798;11.770;2023-08-24T05:55:25;97730.00;;;25.60
80496;BMP180;69819;48.798;11.770;2023-08-24T05:57:51;97704.00;;;25.90
80496;BMP180;69819;48.798;11.770;2023-08-24T06:00:17;97734.00;;;26.40
80496;BMP180;69819;48.798;11.770;2023-08-24T06:02:43;97749.00;;;26.70
80496;BMP180;69819;48.798;11.770;2023-08-24T06:05:09;97737.00;;;27.10
80496;BMP180;69819;48.798;11.770;2023-08-24T06:07:35;97732.00;;;27.50
80496;BMP180;69819;48.798;11.770;2023-08-24T06:10:02;97740.00;;;27.90
80496;BMP180;69819;48.798;11.770;2023-08-24T06:12:28;97767.00;;;28.30
80496;BMP180;69819;48.798;11.770;2023-08-24T06:14:53;97757.00;;;28.60
80496;BMP180;69819;48.798;11.770;2023-08-24T06:17:19;97766.00;;;29.00
80496;BMP180;69819;48.798;11.770;2023-08-24T06:19:45;97758.00;;;29.40
80496;BMP180;69819;48.798;11.770;2023-08-24T06:22:11;97752.00;;;29.80
80496;BMP180;69819;48.798;11.770;2023-08-24T06:24:36;97758.00;;;30.20
80496;BMP180;69819;48.798;11.770;2023-08-24T06:27:02;97773.00;;;30.50
80496;BMP180;69819;48.798;11.770;2023-08-24T06:29:31;97756.00;;;30.90
80496;BMP180;69819;48.798;11.770;2023-08-24T06:31:57;97759.00;;;31.20
80496;BMP180;69819;48.798;11.770;2023-08-24T06:34:22;97753.00;;;31.60
80496;BMP180;69819;48.798;11.770;2023-08-24T06:36:52;97755.00;;;31.90
80496;BMP180;69819;48.798;11.770;2023-08-24T06:39:18;97753.00;;;32.20
80496;BMP180;69819;48.798;11.770;2023-08-24T06:41:44;97768.00;;;32.40
80496;BMP180;69819;48.798;11.770;2023-08-24T06:44:10;97775.00;;;32.70
80496;BMP180;69819;48.798;11.770;2023-08-24T06:46:36;97778.00;;;33.00
80496;BMP180;69819;48.798;11.770;2023-08-24T06:49:02;97776.00;;;33.30
80496;BMP180;69819;48.798;11.770;2023-08-24T06:51:28;97782.00;;;33.60
80496;BMP180;69819;48.798;11.770;2023-08-24T06:53:54;97767.00;;;33.90
80496;BMP180;69819;48.798;11.770;2023-08-24T06:56:20;97770.00;;;34.20
80496;BMP180;69819;48.798;11.770;2023-08-24T06:58:47;97780.00;;;34.50
80496;BMP180;69819;48.798;11.770;2023-08-24T07:01:13;97787.00;;;34.90
80496;BMP180;69819;48.798;11.770;2023-08-24T07:03:39;97781.00;;;35.10
80496;BMP180;69819;48.798;11.770;2023-08-24T07:06:06;97770.00;;;35.40
80496;BMP180;69819;48.798;11.770;2023-08-24T07:08:33;97752.00;;;35.70
80496;BMP180;69819;48.798;11.770;2023-08-24T07:11:01;97755.00;;;36.00
80496;BMP180;69819;48.798;11.770;2023-08-24T07:13:27;97760.00;;;36.30
80496;BMP180;69819;48.798;11.770;2023-08-24T07:15:53;97758.00;;;36.60
80496;BMP180;69819;48.798;11.770;2023-08-24T07:18:20;97747.00;;;36.80
80496;BMP180;69819;48.798;11.770;2023-08-24T07:20:47;97745.00;;;37.00
80496;BMP180;69819;48.798;11.770;2023-08-24T07:23:13;97746.00;;;37.20
80496;BMP180;69819;48.798;11.770;2023-08-24T07:25:39;97733.00;;;37.40
80496;BMP180;69819;48.798;11.770;2023-08-24T07:28:05;97738.00;;;37.60
80496;BMP180;69819;48.798;11.770;2023-08-24T07:30:31;97738.00;;;37.70
80496;BMP180;69819;48.798;11.770;2023-08-24T07:32:57;97721.00;;;37.90
80496;BMP180;69819;48.798;11.770;2023-08-24T07:35:23;97735.00;;;38.10
80496;BMP180;69819;48.798;11.770;2023-08-24T07:37:53;97722.00;;;38.20
80496;BMP180;69819;48.798;11.770;2023-08-24T07:40:19;97711.00;;;38.30
80496;BMP180;69819;48.798;11.770;2023-08-24T07:42:46;97713.00;;;38.20
80496;BMP180;69819;48.798;11.770;2023-08-24T07:45:13;97701.00;;;38.20
80496;BMP180;69819;48.798;11.770;2023-08-24T07:47:40;97706.00;;;38.20
80496;BMP180;69819;48.798;11.770;2023-08-24T07:50:08;97678.00;;;38.30
80496;BMP180;69819;48.798;11.770;2023-08-24T07:52:34;97705.00;;;38.40
80496;BMP180;69819;48.798;11.770;2023-08-24T07:54:59;97705.00;;;38.50
80496;BMP180;69819;48.798;11.770;2023-08-24T07:57:29;97714.00;;;38.60
80496;BMP180;69819;48.798;11.770;2023-08-24T07:59:55;97735.00;;;38.70
80496;BMP180;69819;48.798;11.770;2023-08-24T08:02:21;97731.00;;;38.80
80496;BMP180;69819;48.798;11.770;2023-08-24T08:04:46;97729.00;;;39.00
80496;BMP180;69819;48.798;11.770;2023-08-24T08:07:12;97734.00;;;39.20
80496;BMP180;69819;48.798;11.770;2023-08-24T08:09:38;97728.00;;;39.40
80496;BMP180;69819;48.798;11.770;2023-08-24T08:12:04;97713.00;;;39.70
80496;BMP180;69819;48.798;11.770;2023-08-24T08:14:30;97717.00;;;39.90
80496;BMP180;69819;48.798;11.770;2023-08-24T08:16:56;97707.00;;;40.20
80496;BMP180;69819;48.798;11.770;2023-08-24T08:19:22;97698.00;;;40.40
80496;BMP180;69819;48.798;11.770;2023-08-24T08:21:51;97699.00;;;40.60
80496;BMP180;69819;48.798;11.770;2023-08-24T08:24:17;97703.00;;;40.90
80496;BMP180;69819;48.798;11.770;2023-08-24T08:26:43;97711.00;;;41.00
80496;BMP180;69819;48.798;11.770;2023-08-24T08:29:08;97713.00;;;41.20
80496;BMP180;69819;48.798;11.770;2023-08-24T08:31:34;97713.00;;;41.30
80496;BMP180;69819;48.798;11.770;2023-08-24T08:34:00;97725.00;;;41.40
80496;BMP180;69819;48.798;11.770;2023-08-24T08:36:26;97721.00;;;41.40
80496;BMP180;69819;48.798;11.770;2023-08-24T08:38:52;97722.00;;;41.50
80496;BMP180;69819;48.798;11.770;2023-08-24T08:41:22;97721.00;;;41.40
80496;BMP180;69819;48.798;11.770;2023-08-24T08:43:48;97710.00;;;41.20
80496;BMP180;69819;48.798;11.770;2023-08-24T08:46:15;97710.00;;;40.80
80496;BMP180;69819;48.798;11.770;2023-08-24T08:48:43;97726.00;;;40.30
80496;BMP180;69819;48.798;11.770;2023-08-24T08:51:11;97739.00;;;39.70
80496;BMP180;69819;48.798;11.770;2023-08-24T08:53:39;97727.00;;;39.00
80496;BMP180;69819;48.798;11.770;2023-08-24T08:56:06;97733.00;;;38.50
80496;BMP180;69819;48.798;11.770;2023-08-24T08:58:33;97726.00;;;38.00
80496;BMP180;69819;48.798;11.770;2023-08-24T09:01:03;97726.00;;;37.50
80496;BMP180;69819;48.798;11.770;2023-08-24T09:03:31;97724.00;;;37.10
80496;BMP180;69819;48.798;11.770;2023-08-24T09:05:58;97732.00;;;36.90
80496;BMP180;69819;48.798;11.770;2023-08-24T09:08:26;97724.00;;;36.70
80496;BMP180;69819;48.798;11.770;2023-08-24T09:10:54;97715.00;;;36.70
80496;BMP180;69819;48.798;11.770;2023-08-24T09:13:21;97722.00;;;36.60
80496;BMP180;69819;48.798;11.770;2023-08-24T09:15:47;97725.00;;;36.60
80496;BMP180;69819;48.798;11.770;2023-08-24T09:18:12;97697.00;;;36.60
80496;BMP180;69819;48.798;11.770;2023-08-24T09:20:38;97717.00;;;36.80
80496;BMP180;69819;48.798;11.770;2023-08-24T09:23:04;97708.00;;;37.00
80496;BMP180;69819;48.798;11.770;2023-08-24T09:25:30;97701.00;;;37.20
80496;BMP180;69819;48.798;11.770;2023-08-24T09:27:58;97703.00;;;37.50
80496;BMP180;69819;48.798;11.770;2023-08-24T09:30:31;97706.00;;;37.60
80496;BMP180;69819;48.798;11.770;2023-08-24T09:33:10;97706.00;;;37.90
80496;BMP180;69819;48.798;11.770;2023-08-24T09:35:37;97698.00;;;38.10
80496;BMP180;69819;48.798;11.770;2023-08-24T09:38:22;97684.00;;;38.30
80496;BMP180;69819;48.798;11.770;2023-08-24T09:40:53;97663.00;;;38.40
80496;BMP180;69819;48.798;11.770;2023-08-24T09:43:19;97651.00;;;38.50
80496;BMP180;69819;48.798;11.770;2023-08-24T09:45:52;97653.00;;;38.50
80496;BMP180;69819;48.798;11.770;2023-08-24T09:48:19;97641.00;;;38.50
80496;BMP180;69819;48.798;11.770;2023-08-24T09:50:50;97644.00;;;38.40
80496;BMP180;69819;48.798;11.770;2023-08-24T09:53:23;97620.00;;;38.40
80496;BMP180;69819;48.798;11.770;2023-08-24T09:56:15;97656.00;;;38.30
80496;BMP180;69819;48.798;11.770;2023-08-24T09:58:43;97646.00;;;38.20
80496;BMP180;69819;48.798;11.770;2023-08-24T10:01:10;97644.00;;;38.20
80496;BMP180;69819;48.798;11.770;2023-08-24T10:03:39;97646.00;;;38.10
80496;BMP180;69819;48.798;11.770;2023-08-24T10:06:10;97647.00;;;38.10
80496;BMP180;69819;48.798;11.770;2023-08-24T10:08:44;97649.00;;;38.10
80496;BMP180;69819;48.798;11.770;2023-08-24T10:11:17;97629.00;;;38.00
80496;BMP180;69819;48.798;11.770;2023-08-24T10:14:00;97640.00;;;38.00
80496;BMP180;69819;48.798;11.770;2023-08-24T10:16:29;97638.00;;;38.00
80496;BMP180;69819;48.798;11.770;2023-08-24T10:18:55;97630.00;;;38.00
80496;BMP180;69819;48.798;11.770;2023-08-24T10:21:23;97635.00;;;37.90
80496;BMP180;69819;48.798;11.770;2023-08-24T10:23:53;97627.00;;;37.80
80496;BMP180;69819;48.798;11.770;2023-08-24T10:26:22;97629.00;;;37.70
80496;BMP180;69819;48.798;11.770;2023-08-24T10:28:50;97627.00;;;37.60
80496;BMP180;69819;48.798;11.770;2023-08-24T10:31:17;97613.00;;;37.50
80496;BMP180;69819;48.798;11.770;2023-08-24T10:33:46;97610.00;;;37.40
80496;BMP180;69819;48.798;11.770;2023-08-24T10:36:14;97621.00;;;37.30
80496;BMP180;69819;48.798;11.770;2023-08-24T10:38:43;97617.00;;;37.20
80496;BMP180;69819;48.798;11.770;2023-08-24T10:41:10;97606.00;;;37.10
80496;BMP180;69819;48.798;11.770;2023-08-24T10:43:40;97606.00;;;36.90
80496;BMP180;69819;48.798;11.770;2023-08-24T10:46:15;97605.00;;;36.70
80496;BMP180;69819;48.798;11.770;2023-08-24T10:53:53;97575.00;;;36.10
80496;BMP180;69819;48.798;11.770;2023-08-24T10:56:20;97576.00;;;35.90
80496;BMP180;69819;48.798;11.770;2023-08-24T10:59:10;97571.00;;;35.60
80496;BMP180;69819;48.798;11.770;2023-08-24T11:01:59;97560.00;;;35.40
80496;BMP180;69819;48.798;11.770;2023-08-24T11:04:25;97563.00;;;35.30
80496;BMP180;69819;48.798;11.770;2023-08-24T11:06:56;97562.00;;;35.20
80496;BMP180;69819;48.798;11.770;2023-08-24T11:09:23;97544.00;;;35.10
80496;BMP180;69819;48.798;11.770;2023-08-24T11:12:01;97532.00;;;34.90
80496;BMP180;69819;48.798;11.770;2023-08-24T11:14:28;97516.00;;;34.90
80496;BMP180;69819;48.798;11.770;2023-08-24T11:17:01;97517.00;;;34.80
80496;BMP180;69819;48.798;11.770;2023-08-24T11:19:52;97528.00;;;34.70
80496;BMP180;69819;48.798;11.770;2023-08-24T11:22:18;97530.00;;;34.70
80496;BMP180;69819;48.798;11.770;2023-08-24T11:24:45;97501.00;;;34.60
80496;BMP180;69819;48.798;11.770;2023-08-24T11:27:11;97494.00;;;34.60
80496;BMP180;69819;48.798;11.770;2023-08-24T11:29:36;97505.00;;;34.50
80496;BMP180;69819;48.798;11.770;2023-08-24T11:32:03;97502.00;;;34.50
80496;BMP180;69819;48.798;11.770;2023-08-24T11:34:30;97498.00;;;34.50
80496;BMP180;69819;48.798;11.770;2023-08-24T11:36:56;97475.00;;;34.50
80496;BMP180;69819;48.798;11.770;2023-08-24T11:39:23;97495.00;;;34.50
80496;BMP180;69819;48.798;11.770;2023-08-24T11:42:05;97499.00;;;34.40
80496;BMP180;69819;48.798;11.770;2023-08-24T11:44:48;97489.00;;;34.40
80496;BMP180;69819;48.798;11.770;2023-08-24T11:47:14;97481.00;;;34.40
80496;BMP180;69819;48.798;11.770;2023-08-24T11:49:41;97497.00;;;34.40
80496;BMP180;69819;48.798;11.770;2023-08-24T11:52:08;97484.00;;;34.40
80496;BMP180;69819;48.798;11.770;2023-08-24T11:54:36;97477.00;;;34.40
80496;BMP180;69819;48.798;11.770;2023-08-24T11:57:09;97479.00;;;34.30
80496;BMP180;69819;48.798;11.770;2023-08-24T11:59:37;97465.00;;;34.30
80496;BMP180;69819;48.798;11.770;2023-08-24T12:02:05;97472.00;;;34.30
80496;BMP180;69819;48.798;11.770;2023-08-24T12:04:43;97473.00;;;34.30
80496;BMP180;69819;48.798;11.770;2023-08-24T12:07:14;97478.00;;;34.30
80496;BMP180;69819;48.798;11.770;2023-08-24T12:09:41;97479.00;;;34.30
80496;BMP180;69819;48.798;11.770;2023-08-24T12:12:15;97479.00;;;34.30
80496;BMP180;69819;48.798;11.770;2023-08-24T12:14:45;97481.00;;;34.40
80496;BMP180;69819;48.798;11.770;2023-08-24T12:17:13;97468.00;;;34.40
80496;BMP180;69819;48.798;11.770;2023-08-24T12:20:00;97473.00;;;34.40
80496;BMP180;69819;48.798;11.770;2023-08-24T12:22:26;97475.00;;;34.50
80496;BMP180;69819;48.798;11.770;2023-08-24T12:24:52;97481.00;;;34.60
80496;BMP180;69819;48.798;11.770;2023-08-24T12:27:24;97476.00;;;34.60
80496;BMP180;69819;48.798;11.770;2023-08-24T12:29:52;97478.00;;;34.70
80496;BMP180;69819;48.798;11.770;2023-08-24T12:32:20;97459.00;;;34.80
80496;BMP180;69819;48.798;11.770;2023-08-24T12:34:48;97447.00;;;34.80
80496;BMP180;69819;48.798;11.770;2023-08-24T12:37:13;97471.00;;;34.90
80496;BMP180;69819;48.798;11.770;2023-08-24T12:39:40;97451.00;;;34.90
80496;BMP180;69819;48.798;11.770;2023-08-24T12:42:06;97459.00;;;35.00
80496;BMP180;69819;48.798;11.770;2023-08-24T12:44:32;97448.00;;;35.00
80496;BMP180;69819;48.798;11.770;2023-08-24T12:46:59;97424.00;;;35.10
80496;BMP180;69819;48.798;11.770;2023-08-24T12:49:25;97435.00;;;35.20
80496;BMP180;69819;48.798;11.770;2023-08-24T12:51:50;97437.00;;;35.20
80496;BMP180;69819;48.798;11.770;2023-08-24T12:54:16;97439.00;;;35.30
80496;BMP180;69819;48.798;11.770;2023-08-24T12:56:42;97438.00;;;35.40
80496;BMP180;69819;48.798;11.770;2023-08-24T12:59:08;97430.00;;;35.50
80496;BMP180;69819;48.798;11.770;2023-08-24T13:01:34;97421.00;;;35.50
80496;BMP180;69819;48.798;11.770;2023-08-24T13:04:00;97404.00;;;35.60
80496;BMP180;69819;48.798;11.770;2023-08-24T13:06:26;97409.00;;;35.60
80496;BMP180;69819;48.798;11.770;2023-08-24T13:08:55;97406.00;;;35.70
80496;BMP180;69819;48.798;11.770;2023-08-24T13:11:22;97426.00;;;35.70
80496;BMP180;69819;48.798;11.770;2023-08-24T13:13:48;97398.00;;;35.80
80496;BMP180;69819;48.798;11.770;2023-08-24T13:16:14;97402.00;;;35.70
80496;BMP180;69819;48.798;11.770;2023-08-24T13:18:42;97368.00;;;35.80
80496;BMP180;69819;48.798;11.770;2023-08-24T13:21:07;97381.00;;;35.80
80496;BMP180;69819;48.798;11.770;2023-08-24T13:23:33;97398.00;;;35.80
80496;BMP180;69819;48.798;11.770;2023-08-24T13:25:59;97403.00;;;35.80
80496;BMP180;69819;48.798;11.770;2023-08-24T13:28:26;97363.00;;;35.90
80496;BMP180;69819;48.798;11.770;2023-08-24T13:30:52;97376.00;;;35.90
80496;BMP180;69819;48.798;11.770;2023-08-24T13:33:17;97351.00;;;35.90
80496;BMP180;69819;48.798;11.770;2023-08-24T13:35:46;97373.00;;;36.00
80496;BMP180;69819;48.798;11.770;2023-08-24T13:38:12;97375.00;;;35.90
80496;BMP180;69819;48.798;11.770;2023-08-24T13:40:38;97359.00;;;35.90
80496;BMP180;69819;48.798;11.770;2023-08-24T13:43:04;97354.00;;;35.80
80496;BMP180;69819;48.798;11.770;2023-08-24T13:45:30;97354.00;;;35.80
80496;BMP180;69819;48.798;11.770;2023-08-24T13:47:57;97329.00;;;35.70
80496;BMP180;69819;48.798;11.770;2023-08-24T13:50:23;97321.00;;;35.60
80496;BMP180;69819;48.798;11.770;2023-08-24T13:52:49;97334.00;;;35.60
80496;BMP180;69819;48.798;11.770;2023-08-24T13:55:15;97329.00;;;35.50
80496;BMP180;69819;48.798;11.770;2023-08-24T13:57:42;97297.00;;;35.50
80496;BMP180;69819;48.798;11.770;2023-08-24T14:00:09;97328.00;;;35.50
80496;BMP180;69819;48.798;11.770;2023-08-24T14:02:36;97330.00;;;35.40
80496;BMP180;69819;48.798;11.770;2023-08-24T14:05:01;97304.00;;;35.40
80496;BMP180;69819;48.798;11.770;2023-08-24T14:07:27;97315.00;;;35.40
80496;BMP180;69819;48.798;11.770;2023-08-24T14:09:53;97313.00;;;35.40